King Salmon, AK

3:45 AM AKDT on April 19, 2015 (GMT -0800)
Port Heiden | | Change Station
CLOSE
Current Station
Airport
Location: Port Heiden,
Elevation: 95 ft
Nearby Weather Stations

Elev 95 ft 56.96 °N, 158.63 °W | Updated 9 minutes ago

Overcast
Overcast
37 °F
Feels Like 34 °F
N
5
Wind Variable Wind from East

Today
High -- | Low -- °F
--% Chance of Precip.
Yesterday
High -- | Low -- °F
Precip. -- in
7:16 AM 9:52 PM
New Moon, 1% visible
Pressure 29.01 in
Visibility 10.0 miles
Clouds Mostly Cloudy 3000 ft
Overcast 3600 ft
Windchill 34 °F
Dew Point 28 °F
Humidity 70%
Rainfall 0.00 in
Snow Depth Not available.
UV 0 out of 12
Pollen Not available.
Air Quality Not available.
Flu Activity Sporadic
METAR PAPH 191136Z AUTO 09004KT 10SM BKN030 OVC036 03/M02 A2901 RMK AO1

More Conditions Fewer Conditions

Pressure 29.01 in
Visibility 10.0 miles
Clouds Mostly Cloudy 3000 ft
Overcast 3600 ft
Windchill 34 °F
Dew Point 28 °F
Humidity 70%
Rainfall 0.00 in
Snow Depth Not available.
UV 0 out of 12
Pollen Not available.
Air Quality Not available.
Flu Activity Sporadic
METAR PAPH 191136Z AUTO 09004KT 10SM BKN030 OVC036 03/M02 A2901 RMK AO1

More Conditions Fewer Conditions

10-Day Weather Forecast

Almanac

Astronomy

Apr. 19, 2015 Rise Set
Actual Time
Civil Twilight
Nautical Twilight
Astronomical Twilight
Moon
Length of Visible Light
Length of Day
Tomorrow will be .
, % of the Moon is Illuminated

Today's Extremes

State Highs State Lows

Community

WunderPhotos

Upload Photos

1,814,760 photos uploaded!

WunderBlogs® & News

Nearby

Air Quality

  Air Quality AQ Index Pollutant
Not available.

Snow Depth

Station Depth Elevation

Earthquake Activity

City Distance Mag. Time & Date
Minimum magnitude displayed is 2.5.

Coastal Water Temperatures

Place Temperature

Stations

Nearby Weather Stations

Station Location Temp. Windchill Dew Point Humidity Wind Precip. Elev Updated Type